High Ridge, Missouri
Current Conditions -  °F | °C
As of 11:54 AM on Thursday 27 Nov 2014 (Local Time) from KSUS Reporting Station
Broken Clouds Broken Clouds  
Wind Chill: 25°   Ceiling: 3500
Heat Index: 34°   Visibility: 10mi
Dew Point: 23°   Wind: 14mph
Humidity: 64%   Direction: 290°WNW
Pressure: 30.47"   Gusts: NA
Location:  38.46°N, 90.53°W
Report Text: KSUS 271754Z 29012KT 10SM BKN035 01/M05 A3047 RMK AO2 SLP326 T00111050 10011 21011 58002
Loading
Personal Weather Stations






























Interactive Weather Map New forecast layout! Learn more

10-Day Weather Forecast

Advertisements
Track Severe Weather on mobile